Time;durP1;ratioP1;P1;durP2;ratioP2;P2;SDS_P1;SDS_P2;PMS_P1;PMS_P2;Temp;Humidity;BMP_temperature;BMP_pressure;BME280_temperature;BME280_humidity;BME280_pressure;Samples;Min_cycle;Max_cycle;Signal;HPM_P1;HPM_P2
2022/01/17 00:01:41;;;;;;;12.30;1.60;;;;;;;6.59;100.00;103070.16;5080187;28;20053;-39
2022/01/17 00:04:10;;;;;;;13.18;1.77;;;;;;;6.55;100.00;103064.19;5079381;28;20067;-33
2022/01/17 00:06:39;;;;;;;8.27;1.38;;;;;;;6.50;100.00;103066.78;5082567;28;20052;-33
2022/01/17 00:09:07;;;;;;;8.85;1.90;;;;;;;6.47;100.00;103063.56;5076580;28;20060;-41
2022/01/17 00:11:40;;;;;;;8.82;1.40;;;;;;;6.43;100.00;103053.97;5084469;28;20040;-37
2022/01/17 00:14:11;;;;;;;11.10;1.63;;;;;;;6.38;100.00;103057.44;5076977;28;20049;-34
2022/01/17 00:16:45;;;;;;;13.15;1.90;;;;;;;6.35;100.00;103052.31;5079111;28;20516;-36
2022/01/17 00:19:35;;;;;;;9.15;1.20;;;;;;;6.34;100.00;103056.16;5087179;28;20046;-35
2022/01/17 00:22:03;;;;;;;10.40;1.65;;;;;;;6.31;100.00;103056.59;5075911;28;20131;-38
2022/01/17 00:24:31;;;;;;;10.38;1.48;;;;;;;6.30;100.00;103046.56;5080621;28;20040;-34
2022/01/17 00:26:59;;;;;;;9.40;1.40;;;;;;;6.28;100.00;103054.25;5085184;28;20402;-37
2022/01/17 00:29:28;;;;;;;13.75;1.85;;;;;;;6.29;100.00;103061.50;5075543;28;20040;-38
2022/01/17 00:31:57;;;;;;;9.95;1.58;;;;;;;6.30;100.00;103059.56;5085174;28;20136;-30
2022/01/17 00:34:25;;;;;;;14.30;1.60;;;;;;;6.29;100.00;103071.72;5076436;28;20421;-34
2022/01/17 00:36:53;;;;;;;13.70;1.60;;;;;;;6.27;100.00;103066.41;5084547;28;20409;-37
2022/01/17 00:39:21;;;;;;;13.57;1.80;;;;;;;6.28;100.00;103062.56;5076377;28;20498;-35
2022/01/17 00:41:49;;;;;;;10.93;1.60;;;;;;;6.27;100.00;103058.09;5085049;28;20382;-34
2022/01/17 00:44:21;;;;;;;9.85;1.88;;;;;;;6.26;100.00;103056.38;5076057;28;20040;-33
2022/01/17 00:46:50;;;;;;;8.85;1.63;;;;;;;6.26;100.00;103069.38;5080011;28;20493;-36
2022/01/17 00:49:20;;;;;;;12.68;1.67;;;;;;;6.25;100.00;103068.53;5086381;28;20048;-41
2022/01/17 00:51:48;;;;;;;10.98;1.65;;;;;;;6.28;100.00;103083.88;5081790;28;20052;-35
2022/01/17 00:54:15;;;;;;;17.85;2.40;;;;;;;6.31;100.00;103078.75;5084550;28;20048;-34
2022/01/17 00:56:43;;;;;;;16.70;1.95;;;;;;;6.31;100.00;103089.84;5081837;28;20405;-39
2022/01/17 00:59:11;;;;;;;12.65;1.92;;;;;;;6.31;100.00;103094.56;5087976;28;20059;-33
2022/01/17 01:01:38;;;;;;;15.38;2.10;;;;;;;6.27;100.00;103099.66;5083251;28;20059;-36
2022/01/17 01:04:06;;;;;;;10.07;1.73;;;;;;;6.24;100.00;103119.50;5084798;28;20098;-38
2022/01/17 01:06:36;;;;;;;16.10;1.98;;;;;;;6.21;100.00;103112.47;5088478;28;20043;-39
2022/01/17 01:09:05;;;;;;;12.35;1.67;;;;;;;6.20;100.00;103121.84;5079223;28;20040;-35
2022/01/17 01:11:33;;;;;;;13.93;1.60;;;;;;;6.20;100.00;103118.22;5079438;28;20050;-34
2022/01/17 01:14:03;;;;;;;12.80;1.92;;;;;;;6.16;100.00;103115.06;5080221;28;20051;-35
2022/01/17 01:16:34;;;;;;;13.07;1.95;;;;;;;6.15;100.00;103098.63;5077976;28;20444;-36
2022/01/17 01:19:19;;;;;;;14.15;1.88;;;;;;;6.15;100.00;103090.31;5080971;28;20052;-32
2022/01/17 01:30:17;;;;;;;11.48;1.40;;;;;;;6.05;100.00;103070.47;5008825;28;20050;-36
2022/01/17 01:32:49;;;;;;;12.38;1.60;;;;;;;6.06;100.00;103069.41;5008783;28;20046;-34
2022/01/17 01:35:20;;;;;;;11.77;1.52;;;;;;;6.07;100.00;103066.44;5047755;28;20653;-30
2022/01/17 01:37:49;;;;;;;14.40;1.80;;;;;;;6.08;100.00;103070.06;5082770;28;20045;-42
2022/01/17 01:40:19;;;;;;;11.18;1.70;;;;;;;6.08;100.00;103072.84;5083897;28;20040;-31
2022/01/17 01:42:51;;;;;;;10.02;1.45;;;;;;;6.06;100.00;103097.13;5087863;28;20048;-37
2022/01/17 01:45:20;;;;;;;11.43;1.42;;;;;;;6.03;100.00;103095.63;5077789;28;20398;-30
2022/01/17 01:47:48;;;;;;;16.10;2.00;;;;;;;6.04;100.00;103107.56;5085609;28;20048;-37
2022/01/17 01:50:18;;;;;;;11.77;1.48;;;;;;;6.05;100.00;103112.06;5082575;28;20432;-32
2022/01/17 01:52:49;;;;;;;13.05;2.63;;;;;;;6.06;100.00;103111.00;5083415;28;20051;-35
2022/01/17 01:55:21;;;;;;;14.48;1.85;;;;;;;6.06;100.00;103111.00;5081349;28;20055;-32
2022/01/17 01:57:49;;;;;;;14.05;1.60;;;;;;;6.06;100.00;103102.69;5085430;28;20524;-39
2022/01/17 02:00:18;;;;;;;15.48;2.03;;;;;;;6.05;100.00;103098.19;5081050;28;20055;-36
2022/01/17 02:02:46;;;;;;;11.10;1.80;;;;;;;6.04;100.00;103093.72;5090385;28;20044;-34
2022/01/17 02:05:14;;;;;;;14.70;1.75;;;;;;;6.05;100.00;103090.75;5082243;28;20389;-33
2022/01/17 02:07:44;;;;;;;11.43;1.65;;;;;;;6.06;100.00;103099.91;5089790;28;20060;-38
2022/01/17 02:10:14;;;;;;;13.10;2.20;;;;;;;6.07;100.00;103098.84;5081813;28;20040;-36
2022/01/17 02:12:42;;;;;;;13.40;1.80;;;;;;;6.06;100.00;103097.13;5072645;28;20048;-34
2022/01/17 02:15:12;;;;;;;11.38;1.67;;;;;;;6.07;100.00;103104.38;5080694;28;20045;-35
2022/01/17 02:17:45;;;;;;;10.70;1.65;;;;;;;6.07;100.00;103118.25;5090201;28;20073;-32
2022/01/17 02:20:21;;;;;;;16.05;2.17;;;;;;;6.07;100.00;103094.16;5081288;28;20045;-36
2022/01/17 02:22:49;;;;;;;16.15;1.92;;;;;;;6.07;100.00;103096.94;5089200;28;20044;-35
2022/01/17 02:25:17;;;;;;;11.18;2.10;;;;;;;6.07;100.00;103102.47;5081379;28;20048;-40
2022/01/17 02:27:45;;;;;;;16.27;1.65;;;;;;;6.07;100.00;103098.84;5089965;28;20036;-38
2022/01/17 02:30:16;;;;;;;15.45;1.92;;;;;;;6.08;100.00;103100.53;5082702;28;20047;-36
2022/01/17 02:32:44;;;;;;;15.90;2.83;;;;;;;6.05;100.00;103104.59;5088911;28;20051;-37
2022/01/17 02:35:15;;;;;;;15.57;2.03;;;;;;;6.06;100.00;103116.53;5082787;28;20045;-37
2022/01/17 02:37:44;;;;;;;16.08;1.80;;;;;;;6.05;100.00;103090.75;5081416;28;20055;-38
2022/01/17 02:40:15;;;;;;;16.30;1.98;;;;;;;6.04;100.00;103091.81;5083528;28;20047;-36
2022/01/17 02:42:45;;;;;;;14.63;1.85;;;;;;;6.05;100.00;103078.78;5080174;28;20539;-35
2022/01/17 02:45:30;;;;;;;10.40;2.15;;;;;;;6.06;100.00;103086.91;5083137;28;20059;-37
2022/01/17 02:47:58;;;;;;;16.52;2.50;;;;;;;6.07;100.00;103076.66;5081458;28;20138;-34
2022/01/17 02:50:26;;;;;;;12.82;1.88;;;;;;;6.08;100.00;103084.78;5093508;28;20079;-31
2022/01/17 02:53:00;;;;;;;11.52;1.90;;;;;;;6.10;100.00;103090.94;5087609;28;20059;-34
2022/01/17 02:55:28;;;;;;;11.60;1.70;;;;;;;6.09;100.00;103088.41;5085279;28;20056;-33
2022/01/17 02:57:56;;;;;;;11.05;2.00;;;;;;;6.09;100.00;103074.53;5086602;28;20420;-32
2022/01/17 03:00:24;;;;;;;17.55;2.08;;;;;;;6.10;100.00;103065.16;5085151;28;20113;-35
2022/01/17 03:02:53;;;;;;;13.30;1.83;;;;;;;6.10;100.00;103059.63;5085367;28;20044;-36
2022/01/17 03:05:22;;;;;;;13.18;2.20;;;;;;;6.11;100.00;103048.31;5081578;28;20052;-35
2022/01/17 03:07:51;;;;;;;10.52;1.70;;;;;;;6.13;100.00;103048.94;5082118;28;20059;-34
2022/01/17 03:10:32;;;;;;;10.88;1.52;;;;;;;6.12;100.00;103043.63;5079237;28;20056;-32
2022/01/17 03:13:04;;;;;;;13.95;1.80;;;;;;;6.13;100.00;103053.63;5082318;28;20051;-34
2022/01/17 03:15:32;;;;;;;12.25;2.05;;;;;;;6.15;100.00;103059.81;5080461;28;20066;-39
2022/01/17 03:18:00;;;;;;;15.65;2.25;;;;;;;6.16;100.00;103058.75;5082733;28;20071;-31
2022/01/17 03:20:27;;;;;;;17.08;2.45;;;;;;;6.20;100.00;103062.78;5078034;28;20044;-33
2022/01/17 03:22:55;;;;;;;17.02;2.28;;;;;;;6.23;100.00;103062.34;5085466;28;20090;-38
2022/01/17 03:25:24;;;;;;;17.08;2.33;;;;;;;6.22;100.00;103053.19;5075249;28;20052;-36
2022/01/17 03:27:52;;;;;;;16.67;2.90;;;;;;;6.25;100.00;103076.00;5059489;28;20409;-36
2022/01/17 03:30:22;;;;;;;11.57;2.05;;;;;;;6.26;100.00;103072.16;5081839;28;20043;-36
2022/01/17 03:32:50;;;;;;;16.27;2.42;;;;;;;6.28;100.00;103086.66;5079105;28;20052;-35
2022/01/17 03:35:18;;;;;;;13.63;2.35;;;;;;;6.29;100.00;103075.34;5088455;28;20069;-32
2022/01/17 03:37:46;;;;;;;9.07;2.13;;;;;;;6.29;100.00;103085.59;5080272;28;20055;-38
2022/01/17 03:40:15;;;;;;;13.52;2.58;;;;;;;6.30;100.00;103076.22;5087652;28;20055;-34
2022/01/17 03:42:44;;;;;;;20.75;2.95;;;;;;;6.31;100.00;103089.84;5080380;28;20048;-37
2022/01/17 03:45:12;;;;;;;12.73;3.20;;;;;;;6.34;100.00;103083.88;5086449;28;20040;-31
2022/01/17 03:47:43;;;;;;;16.27;4.07;;;;;;;6.38;100.00;103076.00;5082556;28;20421;-29
2022/01/17 03:50:13;;;;;;;13.05;3.60;;;;;;;6.40;100.00;103084.91;5085761;28;20426;-37
2022/01/17 03:52:41;;;;;;;14.38;4.50;;;;;;;6.41;100.00;103087.47;5082755;28;20051;-37
2022/01/17 03:55:12;;;;;;;15.68;4.57;;;;;;;6.44;100.00;103089.81;5085265;28;20151;-32
2022/01/17 03:57:41;;;;;;;20.05;5.65;;;;;;;6.44;100.00;103092.59;5084268;28;20041;-38
2022/01/17 04:00:13;;;;;;;16.52;6.22;;;;;;;6.45;100.00;103091.53;5085537;28;20068;-38
2022/01/17 04:02:42;;;;;;;17.50;5.95;;;;;;;6.45;100.00;103083.19;5083854;28;20056;-35
2022/01/17 04:05:10;;;;;;;17.25;6.43;;;;;;;6.45;100.00;103096.22;5086352;28;20044;-39
2022/01/17 04:07:38;;;;;;;17.42;6.40;;;;;;;6.44;100.00;103087.03;5082732;28;20056;-41
2022/01/17 04:10:07;;;;;;;22.98;6.22;;;;;;;6.44;100.00;103100.06;5084368;28;20390;-34
2022/01/17 04:12:34;;;;;;;18.25;6.32;;;;;;;6.43;100.00;103104.75;5079946;28;20397;-39
2022/01/17 04:15:02;;;;;;;16.95;5.60;;;;;;;6.44;100.00;103100.91;5080383;28;20048;-37
2022/01/17 04:17:31;;;;;;;18.45;5.90;;;;;;;6.43;100.00;103087.25;5078806;28;20051;-35
2022/01/17 04:20:05;;;;;;;15.77;5.57;;;;;;;6.42;100.00;103110.50;5083231;28;20051;-33
2022/01/17 04:22:36;;;;;;;15.40;5.32;;;;;;;6.41;100.00;103106.03;5060538;28;20044;-36
2022/01/17 04:25:05;;;;;;;15.55;5.20;;;;;;;6.38;100.00;103100.94;5083882;28;20055;-31
2022/01/17 04:27:33;;;;;;;15.10;4.95;;;;;;;6.38;100.00;103100.94;5075739;28;20055;-31
2022/01/17 04:30:02;;;;;;;12.13;4.82;;;;;;;6.37;100.00;103104.78;5067646;28;20398;-35
2022/01/17 04:32:31;;;;;;;17.48;5.43;;;;;;;6.36;100.00;103103.94;5076542;28;20057;-34
2022/01/17 04:34:59;;;;;;;17.00;5.30;;;;;;;6.36;100.00;103103.94;5084536;28;20067;-29
2022/01/17 04:37:26;;;;;;;17.27;4.60;;;;;;;6.35;100.00;103116.09;5076574;28;20604;-34
2022/01/17 04:39:54;;;;;;;19.13;5.55;;;;;;;6.34;100.00;103117.16;5085044;28;20039;-36
2022/01/17 04:42:27;;;;;;;16.98;5.03;;;;;;;6.32;100.00;103135.94;5075660;28;20048;-35
2022/01/17 04:45:08;;;;;;;19.17;5.10;;;;;;;6.33;100.00;103112.69;5085256;28;20078;-34
2022/01/17 04:47:39;;;;;;;20.63;4.95;;;;;;;6.35;100.00;103109.69;5076506;28;20504;-34
2022/01/17 04:50:09;;;;;;;20.10;5.43;;;;;;;6.35;100.00;103095.81;5084317;28;20052;-40
2022/01/17 04:52:37;;;;;;;20.05;5.43;;;;;;;6.34;100.00;103106.06;5076175;28;20051;-37
2022/01/17 04:55:08;;;;;;;18.02;4.88;;;;;;;6.33;100.00;103101.59;5072585;28;20048;-31
2022/01/17 04:57:37;;;;;;;19.95;5.22;;;;;;;6.32;100.00;103110.13;5076185;28;20051;-35
2022/01/17 05:00:07;;;;;;;15.82;5.03;;;;;;;6.31;100.00;103108.41;5081889;28;20052;-35
2022/01/17 05:02:35;;;;;;;17.05;4.47;;;;;;;6.29;100.00;103125.25;5077735;28;20036;-36
2022/01/17 05:05:05;;;;;;;17.48;4.82;;;;;;;6.28;100.00;103131.03;5080989;28;20048;-35
2022/01/17 05:07:33;;;;;;;17.67;5.20;;;;;;;6.26;100.00;103127.59;5079130;28;20072;-36
2022/01/17 05:10:02;;;;;;;21.08;5.00;;;;;;;6.25;100.00;103129.53;5079865;28;20051;-32
2022/01/17 05:12:30;;;;;;;17.00;5.25;;;;;;;6.25;100.00;103112.88;5077304;28;20047;-34
2022/01/17 05:14:59;;;;;;;22.83;5.57;;;;;;;6.25;100.00;103118.44;5080560;28;20048;-40
2022/01/17 05:20:18;;;;;;;19.60;4.20;;;;;;;6.25;100.00;103114.81;5067204;28;20054;-33
2022/01/17 05:22:46;;;;;;;19.55;4.15;;;;;;;6.24;100.00;103122.28;5085124;28;20561;-34
2022/01/17 05:25:13;;;;;;;18.77;3.72;;;;;;;6.22;100.00;103122.50;5078107;28;20090;-38
2022/01/17 05:27:41;;;;;;;26.75;4.22;;;;;;;6.22;100.00;103124.41;5084009;28;20051;-33
2022/01/17 05:30:13;;;;;;;19.17;3.33;;;;;;;6.21;100.00;103128.25;5078953;28;20131;-35
2022/01/17 05:32:41;;;;;;;22.50;4.47;;;;;;;6.21;100.00;103133.78;5079584;28;20076;-35
2022/01/17 05:35:10;;;;;;;16.80;3.78;;;;;;;6.21;100.00;103142.09;5080329;28;20051;-34
2022/01/17 05:37:39;;;;;;;15.35;3.88;;;;;;;6.20;100.00;103138.47;5085846;28;20060;-33
2022/01/17 05:40:10;;;;;;;19.67;4.15;;;;;;;6.22;100.00;103143.81;5079726;28;20045;-35
2022/01/17 05:42:38;;;;;;;14.80;2.80;;;;;;;6.22;100.00;103141.03;5086813;28;20048;-36
2022/01/17 05:45:09;;;;;;;17.33;3.10;;;;;;;6.22;100.00;103152.13;5078459;28;20055;-37
2022/01/17 05:47:37;;;;;;;22.55;3.00;;;;;;;6.23;100.00;103131.66;5088456;28;20049;-37
2022/01/17 05:50:06;;;;;;;20.20;3.33;;;;;;;6.25;100.00;103121.22;5079527;28;20056;-35
2022/01/17 05:52:34;;;;;;;17.15;2.95;;;;;;;6.29;100.00;103118.88;5087199;28;20511;-34
2022/01/17 05:55:05;;;;;;;24.48;3.20;;;;;;;6.31;100.00;103105.63;5079070;28;20048;-36
2022/01/17 05:57:33;;;;;;;17.45;2.85;;;;;;;6.31;100.00;103109.28;5088201;28;20489;-38
2022/01/17 06:00:01;;;;;;;18.20;2.60;;;;;;;6.32;100.00;103108.19;5077991;28;20044;-35
2022/01/17 06:02:31;;;;;;;22.80;3.30;;;;;;;6.35;100.00;103107.78;5086620;28;20146;-35
2022/01/17 06:04:59;;;;;;;15.35;2.72;;;;;;;6.36;100.00;103098.38;5078965;28;20051;-34
2022/01/17 06:07:27;;;;;;;21.70;3.30;;;;;;;6.40;100.00;103107.94;5085007;28;20437;-38
2022/01/17 06:09:55;;;;;;;20.50;3.30;;;;;;;6.43;100.00;103120.53;5080370;28;20044;-40
2022/01/17 06:12:24;;;;;;;19.95;3.25;;;;;;;6.46;100.00;103123.75;5083820;28;20052;-42
2022/01/17 06:14:51;;;;;;;26.48;3.15;;;;;;;6.49;100.00;103131.63;5089188;28;20040;-36
2022/01/17 06:17:19;;;;;;;20.88;3.60;;;;;;;6.52;100.00;103131.19;5083298;28;20048;-37
2022/01/17 06:19:47;;;;;;;25.85;3.55;;;;;;;6.56;100.00;103145.50;5088560;28;20044;-37
2022/01/17 06:22:14;;;;;;;22.60;2.92;;;;;;;6.60;100.00;103155.06;5084919;28;20040;-35
2022/01/17 06:24:43;;;;;;;22.42;3.28;;;;;;;6.62;100.00;103163.16;5087308;28;20416;-39
2022/01/17 06:27:11;;;;;;;18.50;2.80;;;;;;;6.63;100.00;103149.09;5084519;28;20418;-37
2022/01/17 06:29:40;;;;;;;19.13;3.15;;;;;;;6.67;100.00;103167.00;5086268;28;20044;-33
2022/01/17 06:32:08;;;;;;;21.67;2.90;;;;;;;6.68;100.00;103160.38;5086419;28;20043;-29
2022/01/17 06:34:56;;;;;;;21.17;3.08;;;;;;;6.70;100.00;103149.06;5086364;28;20494;-34
2022/01/17 06:37:24;;;;;;;19.10;2.90;;;;;;;6.72;100.00;103155.25;5083081;28;20044;-36
2022/01/17 06:39:52;;;;;;;19.08;2.60;;;;;;;6.74;100.00;103155.91;5083022;28;20493;-34
2022/01/17 06:42:20;;;;;;;18.80;3.00;;;;;;;6.77;100.00;103166.56;5079168;28;20053;-35
2022/01/17 06:44:50;;;;;;;16.25;3.10;;;;;;;6.79;100.00;103170.00;5084207;28;20143;-34
2022/01/17 06:47:18;;;;;;;20.65;3.15;;;;;;;6.80;100.00;103166.97;5074375;28;20159;-37
2022/01/17 06:49:46;;;;;;;27.38;3.35;;;;;;;6.82;100.00;103173.16;5085832;28;20044;-33
2022/01/17 06:52:14;;;;;;;25.85;3.70;;;;;;;6.84;100.00;103187.66;5078439;28;20054;-34
2022/01/17 06:54:43;;;;;;;23.23;3.60;;;;;;;6.87;100.00;103205.81;5086979;28;20554;-30
2022/01/17 06:57:10;;;;;;;22.45;3.33;;;;;;;6.89;100.00;103221.19;5077077;28;20039;-34
2022/01/17 06:59:38;;;;;;;20.10;3.22;;;;;;;6.91;100.00;103229.28;5086709;28;20046;-38
2022/01/17 07:02:08;;;;;;;20.88;3.30;;;;;;;6.93;100.00;103260.47;5077704;28;20478;-33
2022/01/17 07:04:36;;;;;;;22.98;3.28;;;;;;;6.95;100.00;103251.91;5073911;28;20044;-37
2022/01/17 07:07:04;;;;;;;23.35;3.30;;;;;;;6.98;100.00;103237.63;5078011;28;20048;-30
2022/01/17 07:09:32;;;;;;;22.20;3.25;;;;;;;6.99;100.00;103225.44;5084186;28;20405;-37
2022/01/17 07:12:00;;;;;;;24.48;3.00;;;;;;;6.99;100.00;103226.28;5078539;28;20036;-38
2022/01/17 07:14:28;;;;;;;19.55;2.92;;;;;;;7.02;100.00;103219.44;5082546;28;20548;-35
2022/01/17 07:16:57;;;;;;;20.10;2.83;;;;;;;7.02;100.00;103214.72;5079666;28;20036;-34
2022/01/17 07:19:26;;;;;;;19.50;2.78;;;;;;;7.05;100.00;103213.44;5082575;28;20051;-39
2022/01/17 07:21:54;;;;;;;22.63;2.90;;;;;;;7.06;100.00;103204.91;5079170;28;20059;-33
2022/01/17 07:24:38;;;;;;;22.35;3.20;;;;;;;7.07;100.00;103209.38;5081593;28;20131;-41
2022/01/17 07:27:06;;;;;;;16.20;2.45;;;;;;;7.10;100.00;103211.72;5079499;28;20151;-35
2022/01/17 07:29:33;;;;;;;22.20;2.75;;;;;;;7.11;100.00;103218.13;5081207;28;20489;-39
2022/01/17 07:32:01;;;;;;;27.25;4.22;;;;;;;7.13;100.00;103216.84;5078070;28;20211;-37
2022/01/17 07:34:30;;;;;;;24.42;3.13;;;;;;;7.14;100.00;103229.66;5089799;28;20052;-33
2022/01/17 07:36:59;;;;;;;24.08;3.20;;;;;;;7.16;100.00;103226.66;5079918;28;20056;-39
2022/01/17 07:39:27;;;;;;;25.30;4.03;;;;;;;7.17;100.00;103229.22;5078966;28;20085;-31
2022/01/17 07:41:55;;;;;;;19.92;2.90;;;;;;;7.18;100.00;103217.06;5081100;28;20044;-39
2022/01/17 07:44:25;;;;;;;25.40;3.63;;;;;;;7.20;100.00;103208.47;5077497;28;20048;-35
2022/01/17 07:46:55;;;;;;;20.90;3.08;;;;;;;7.20;100.00;103222.34;5082811;28;20137;-32
2022/01/17 07:49:24;;;;;;;22.80;3.47;;;;;;;7.21;100.00;103227.69;5076392;28;20052;-33
2022/01/17 07:51:59;;;;;;;22.85;2.85;;;;;;;7.23;100.00;103225.56;5083146;28;20043;-37
2022/01/17 07:54:28;;;;;;;24.70;2.83;;;;;;;7.23;100.00;103228.34;5075766;28;20050;-39
2022/01/17 07:56:57;;;;;;;24.20;3.15;;;;;;;7.25;100.00;103226.19;5083512;28;20101;-37
2022/01/17 07:59:25;;;;;;;20.27;2.92;;;;;;;7.28;100.00;103243.50;5074301;28;20045;-39
2022/01/17 08:01:53;;;;;;;17.02;2.78;;;;;;;7.27;100.00;103239.88;5083872;28;20481;-34
2022/01/17 08:04:21;;;;;;;17.65;2.85;;;;;;;7.30;100.00;103249.69;5074607;28;20124;-37
2022/01/17 08:06:51;;;;;;;24.55;3.15;;;;;;;7.31;100.00;103245.84;5084139;28;20094;-34
2022/01/17 08:09:22;;;;;;;22.67;3.10;;;;;;;7.32;100.00;103251.19;5075324;28;20080;-37
2022/01/17 08:12:04;;;;;;;26.33;3.55;;;;;;;7.34;100.00;103245.41;5085319;28;20040;-35
2022/01/17 08:14:31;;;;;;;27.35;4.07;;;;;;;7.34;100.00;103251.81;5075768;28;20513;-35
2022/01/17 08:16:59;;;;;;;22.75;3.05;;;;;;;7.38;100.00;103257.78;5085228;28;20747;-35
2022/01/17 08:19:27;;;;;;;26.52;4.00;;;;;;;7.39;100.00;103265.03;5069132;28;20387;-34
2022/01/17 08:21:59;;;;;;;23.50;2.63;;;;;;;7.44;100.00;103268.00;5084115;28;20094;-39
2022/01/17 08:24:29;;;;;;;24.50;3.22;;;;;;;7.45;100.00;103264.16;5075861;28;20394;-35
2022/01/17 08:26:58;;;;;;;18.77;2.30;;;;;;;7.46;100.00;103272.25;5082473;28;20077;-34
2022/01/17 08:29:27;;;;;;;19.08;2.97;;;;;;;7.46;100.00;103276.97;5078728;28;20059;-32
2022/01/17 08:31:55;;;;;;;23.88;2.85;;;;;;;7.48;100.00;103286.78;5081776;28;20482;-37
2022/01/17 08:34:23;;;;;;;18.67;2.67;;;;;;;7.50;100.00;103279.09;5077986;28;20090;-37
2022/01/17 08:36:51;;;;;;;21.35;2.83;;;;;;;7.52;100.00;103267.75;5080992;28;20039;-38
2022/01/17 08:39:19;;;;;;;21.25;2.70;;;;;;;7.53;100.00;103272.25;5077730;28;20045;-32
2022/01/17 08:41:48;;;;;;;21.10;2.50;;;;;;;7.55;100.00;103264.56;5079732;28;20052;-33
2022/01/17 08:44:19;;;;;;;26.17;3.38;;;;;;;7.56;100.00;103277.38;5079048;28;20041;-34
2022/01/17 08:46:47;;;;;;;23.60;3.35;;;;;;;7.56;100.00;103288.50;5086891;28;20040;-32
2022/01/17 08:49:16;;;;;;;19.40;3.38;;;;;;;7.57;100.00;103279.09;5082361;28;20143;-34
2022/01/17 08:51:46;;;;;;;26.70;2.90;;;;;;;7.60;100.00;103289.72;5084544;28;20059;-34
2022/01/17 08:54:14;;;;;;;20.48;3.05;;;;;;;7.60;100.00;103285.03;5081572;28;20135;-37
2022/01/17 08:56:42;;;;;;;24.33;3.13;;;;;;;7.63;100.00;103289.28;5085326;28;20048;-34
2022/01/17 08:59:11;;;;;;;20.42;2.67;;;;;;;7.64;100.00;103284.59;5079751;28;20052;-35
2022/01/17 09:01:39;;;;;;;26.33;3.50;;;;;;;7.65;100.00;103292.72;5086904;28;20090;-39
2022/01/17 09:04:08;;;;;;;20.27;3.63;;;;;;;7.67;100.00;103290.56;5077921;28;20059;-33
2022/01/17 09:06:37;;;;;;;24.73;2.95;;;;;;;7.70;100.00;103281.78;5086909;28;20048;-33
2022/01/17 09:09:05;;;;;;;19.33;2.80;;;;;;;7.71;100.00;103286.28;5079688;28;20455;-38
2022/01/17 09:11:33;;;;;;;25.38;3.08;;;;;;;7.73;100.00;103286.91;5091124;28;20408;-30
2022/01/17 09:14:00;;;;;;;26.27;3.35;;;;;;;7.77;100.00;103296.53;5082391;28;20029;-37
2022/01/17 09:16:29;;;;;;;23.80;3.22;;;;;;;7.79;100.00;103304.63;5090013;28;20134;-36
2022/01/17 09:19:00;;;;;;;26.42;3.22;;;;;;;7.80;100.00;103309.94;5083099;28;20048;-36
2022/01/17 09:21:28;;;;;;;20.13;2.90;;;;;;;7.83;100.00;103312.28;5080070;28;20044;-36
2022/01/17 09:23:57;;;;;;;23.15;3.47;;;;;;;7.86;100.00;103324.91;5065835;28;20041;-38
2022/01/17 09:26:26;;;;;;;24.80;3.53;;;;;;;7.87;100.00;103323.81;5089201;28;20052;-33
2022/01/17 09:28:54;;;;;;;25.63;3.67;;;;;;;7.91;100.00;103328.72;5086316;28;20052;-34
2022/01/17 09:31:22;;;;;;;19.05;2.92;;;;;;;7.93;100.00;103334.94;5089657;28;20059;-35
2022/01/17 09:33:52;;;;;;;18.52;2.80;;;;;;;7.97;100.00;103348.38;5084233;28;20083;-41
2022/01/17 09:36:21;;;;;;;21.75;3.38;;;;;;;7.95;100.00;103335.56;5082322;28;20048;-39
2022/01/17 09:38:49;;;;;;;22.88;3.38;;;;;;;7.94;100.00;103341.34;5083281;28;20062;-38
2022/01/17 09:41:17;;;;;;;24.08;3.35;;;;;;;7.92;100.00;103344.34;5081402;28;20413;-32
2022/01/17 09:43:49;;;;;;;24.77;3.22;;;;;;;8.00;100.00;103353.47;5086576;28;20065;-30
2022/01/17 09:46:20;;;;;;;20.90;3.17;;;;;;;8.18;100.00;103367.53;5087087;28;20109;-40
2022/01/17 09:48:50;;;;;;;28.35;3.40;;;;;;;8.39;100.00;103370.03;5090302;28;20115;-37
2022/01/17 09:51:37;;;;;;;19.35;2.95;;;;;;;8.64;100.00;103356.97;5085663;28;20055;-34
2022/01/17 09:54:07;;;;;;;20.50;3.25;;;;;;;8.82;100.00;103367.34;5086448;28;20045;-33
2022/01/17 09:56:38;;;;;;;18.58;3.30;;;;;;;8.98;100.00;103374.31;5087248;28;20051;-34
2022/01/17 09:59:05;;;;;;;17.85;3.00;;;;;;;9.15;100.00;103372.66;5083007;28;20048;-34
2022/01/17 10:01:33;;;;;;;22.25;3.53;;;;;;;9.24;100.00;103370.41;5084121;28;20173;-37
2022/01/17 10:04:06;;;;;;;24.67;2.90;;;;;;;9.26;100.00;103373.81;5080485;28;20401;-38
2022/01/17 10:06:36;;;;;;;22.98;3.72;;;;;;;9.25;100.00;103372.97;5085095;28;20090;-34
2022/01/17 10:09:12;;;;;;;21.88;3.50;;;;;;;9.26;100.00;103385.81;5079531;28;20041;-33
2022/01/17 10:12:00;;;;;;;21.90;2.95;;;;;;;9.23;100.00;103400.19;5085872;28;20079;-35
2022/01/17 10:14:31;;;;;;;26.73;3.55;;;;;;;9.16;100.00;103391.06;5081323;28;20068;-40
2022/01/17 10:16:58;;;;;;;22.30;3.10;;;;;;;9.12;100.00;103408.44;5084696;28;20427;-37
2022/01/17 10:19:27;;;;;;;26.88;3.83;;;;;;;9.11;100.00;103407.59;5078616;28;20059;-34
2022/01/17 10:21:59;;;;;;;29.80;3.08;;;;;;;9.16;100.00;103402.22;5085694;28;20087;-36
2022/01/17 10:24:35;;;;;;;27.85;4.43;;;;;;;9.22;100.00;103397.63;5082243;28;20051;-40
2022/01/17 10:27:16;;;;;;;28.02;3.92;;;;;;;9.29;100.00;103409.59;5085972;28;20059;-38
2022/01/17 10:35:25;;;;;;;23.73;3.33;;;;;;;9.53;100.00;103419.00;5085960;28;20070;-35
2022/01/17 10:38:01;;;;;;;22.80;3.33;;;;;;;9.50;100.00;103420.31;5085920;28;20052;-33
2022/01/17 10:40:31;;;;;;;22.33;3.13;;;;;;;9.44;100.00;103432.38;5081951;28;20039;-38
2022/01/17 10:43:01;;;;;;;21.63;2.97;;;;;;;9.38;100.00;103432.44;5083001;28;20086;-34
2022/01/17 10:45:33;;;;;;;22.77;3.30;;;;;;;9.32;100.00;103429.50;5080668;28;20037;-36
2022/01/17 10:48:02;;;;;;;;;;;;;;;9.23;100.00;103424.41;5083409;28;20052;-34
2022/01/17 10:50:32;;;;;;;21.88;2.97;;;;;;;9.19;100.00;103424.00;5079129;28;19995;-35
2022/01/17 10:53:03;;;;;;;25.08;3.58;;;;;;;9.19;100.00;103426.78;5085372;28;20522;-34
2022/01/17 10:55:33;;;;;;;24.45;3.53;;;;;;;9.18;100.00;103425.13;5062908;28;20409;-35
2022/01/17 10:58:04;;;;;;;22.83;3.80;;;;;;;9.18;100.00;103427.06;5080693;28;20052;-34
2022/01/17 11:00:33;;;;;;;23.17;3.53;;;;;;;9.14;100.00;103437.78;5071174;28;20506;-36
2022/01/17 11:03:04;;;;;;;26.30;3.50;;;;;;;9.14;100.00;103443.38;5079883;28;20040;-35
2022/01/17 11:05:33;;;;;;;26.00;3.95;;;;;;;9.16;100.00;103448.72;5089138;28;20060;-40
2022/01/17 11:08:02;;;;;;;28.02;3.88;;;;;;;9.19;100.00;103448.25;5079972;28;20048;-40
2022/01/17 11:10:33;;;;;;;27.17;3.97;;;;;;;9.24;100.00;103454.84;5088355;28;20048;-38
2022/01/17 11:13:03;;;;;;;27.38;3.85;;;;;;;9.27;100.00;103470.25;5080274;28;20044;-42
2022/01/17 11:15:33;;;;;;;29.65;3.80;;;;;;;9.28;100.00;103466.38;5088300;28;20040;-40
2022/01/17 11:18:05;;;;;;;29.48;3.90;;;;;;;9.26;100.00;103466.63;5080426;28;20044;-33
2022/01/17 11:20:35;;;;;;;23.17;3.60;;;;;;;9.22;100.00;103457.00;5088841;28;20044;-39
2022/01/17 11:23:04;;;;;;;26.05;3.60;;;;;;;9.20;100.00;103461.94;5080517;28;20047;-37
2022/01/17 11:25:34;;;;;;;21.52;3.50;;;;;;;9.19;100.00;103462.19;5070675;28;20045;-38
2022/01/17 11:28:04;;;;;;;26.98;4.10;;;;;;;9.22;100.00;103456.13;5082563;28;20078;-35
2022/01/17 11:30:34;;;;;;;28.90;3.90;;;;;;;9.22;100.00;103451.41;5085890;28;20041;-31
2022/01/17 11:33:04;;;;;;;26.67;4.00;;;;;;;9.25;100.00;103464.06;5082573;28;20056;-36
2022/01/17 11:35:34;;;;;;;22.60;3.45;;;;;;;9.24;100.00;103457.63;5088152;28;20067;-40
2022/01/17 11:38:05;;;;;;;22.42;4.05;;;;;;;9.24;100.00;103454.84;5081466;28;20051;-33
2022/01/17 11:40:36;;;;;;;27.50;3.53;;;;;;;9.22;100.00;103450.56;5089278;28;20036;-36
2022/01/17 11:43:18;;;;;;;23.25;3.20;;;;;;;9.22;100.00;103456.13;5084041;28;20115;-38
2022/01/17 11:45:47;;;;;;;25.45;3.88;;;;;;;9.22;100.00;103461.72;5088257;28;20032;-37